Time;durP1;ratioP1;P1;durP2;ratioP2;P2;SDS_P1;SDS_P2;PMS_P1;PMS_P2;Temp;Humidity;BMP_temperature;BMP_pressure;BME280_temperature;BME280_humidity;BME280_pressure;Samples;Min_cycle;Max_cycle;Signal;HPM_P1;HPM_P2
2021/12/17 00:00:20;;;;;;;230.10;34.17;;;;;;;;;;5070788;28;20094;-72
2021/12/17 00:08:18;;;;;;;156.27;27.40;;;;;;;;;;5069804;28;20119;-73
2021/12/17 00:10:46;;;;;;;182.43;28.70;;;;;;;;;;5068664;28;20506;-72
2021/12/17 00:13:12;;;;;;;216.60;31.17;;;;;;;;;;5062933;28;20044;-72
2021/12/17 00:15:40;;;;;;;198.60;29.87;;;;;;;;;;5070152;28;20044;-72
2021/12/17 00:18:14;;;;;;;192.67;28.87;;;;;;;;;;5088800;28;20060;-72
2021/12/17 00:53:28;;;;;;;172.83;27.87;;;;;;;;;;5071776;28;20052;-72
2021/12/17 00:55:54;;;;;;;211.17;31.13;;;;;;;;;;5072110;28;20056;-72
2021/12/17 00:58:20;;;;;;;186.80;27.70;;;;;;;;;;5071837;28;20468;-72
2021/12/17 01:00:46;;;;;;;203.07;32.00;;;;;;;;;;5071884;28;20043;-72
2021/12/17 01:03:13;;;;;;;169.33;25.67;;;;;;;;;;5071771;28;20467;-72
2021/12/17 01:05:39;;;;;;;182.23;26.77;;;;;;;;;;5072202;28;20052;-72
2021/12/17 01:08:06;;;;;;;171.13;28.63;;;;;;;;;;5054753;28;20137;-72
2021/12/17 01:10:35;;;;;;;161.03;25.80;;;;;;;;;;5070880;28;20044;-72
2021/12/17 01:13:01;;;;;;;188.83;28.17;;;;;;;;;;5071448;28;20039;-72
2021/12/17 01:15:28;;;;;;;203.90;30.17;;;;;;;;;;5071097;28;20079;-72
2021/12/17 01:17:58;;;;;;;222.27;32.37;;;;;;;;;;5071351;28;20102;-72
2021/12/17 01:35:20;;;;;;;150.03;27.37;;;;;;;;;;4990826;28;20385;-72
2021/12/17 01:37:33;;;;;;;112.73;23.17;;;;;;;;;;5089109;28;20054;-72
2021/12/17 01:40:40;;;;;;;141.17;23.50;;;;;;;;;;5089101;28;20497;-72
2021/12/17 01:42:28;;;;;;;120.53;23.33;;;;;;;;;;5067403;28;20058;-72
2021/12/17 01:44:54;;;;;;;118.17;21.63;;;;;;;;;;5069013;28;20052;-72
2021/12/17 01:47:20;;;;;;;121.40;22.97;;;;;;;;;;5050975;28;20044;-72
2021/12/17 02:00:18;;;;;;;154.70;24.93;;;;;;;;;;5068546;28;20063;-72
2021/12/17 02:02:49;;;;;;;155.70;24.63;;;;;;;;;;5050626;28;20139;-72
2021/12/17 02:05:15;;;;;;;135.70;24.43;;;;;;;;;;5050960;28;20486;-72
2021/12/17 02:07:43;;;;;;;170.20;28.53;;;;;;;;;;5050793;28;20052;-72
2021/12/17 02:29:50;;;;;;;155.27;26.33;;;;;;;;;;5063626;28;20385;-72
2021/12/17 02:32:17;;;;;;;149.57;25.47;;;;;;;;;;5070600;28;20109;-72
2021/12/17 02:37:14;;;;;;;130.83;24.30;;;;;;;;;;5088761;28;20052;-72
2021/12/17 02:42:40;;;;;;;135.83;25.57;;;;;;;;;;5074656;28;20075;-72
2021/12/17 02:48:00;;;;;;;147.00;24.90;;;;;;;;;;5092334;28;20470;-72
2021/12/17 02:50:26;;;;;;;138.97;25.33;;;;;;;;;;5092194;28;20047;-72
2021/12/17 02:52:54;;;;;;;112.17;23.37;;;;;;;;;;5092028;28;20051;-72
2021/12/17 02:55:21;;;;;;;111.63;21.97;;;;;;;;;;5074128;28;20048;-72
2021/12/17 02:57:47;;;;;;;144.30;25.07;;;;;;;;;;5073830;28;20040;-71
2021/12/17 03:00:13;;;;;;;130.00;24.47;;;;;;;;;;5073500;28;20083;-71
2021/12/17 03:02:41;;;;;;;182.60;28.27;;;;;;;;;;5083093;28;20064;-72
2021/12/17 03:05:08;;;;;;;164.93;28.20;;;;;;;;;;5087722;28;20040;-72
2021/12/17 03:07:37;;;;;;;127.70;25.57;;;;;;;;;;5091959;28;20122;-72
2021/12/17 03:10:06;;;;;;;119.53;23.83;;;;;;;;;;5091834;28;20055;-72
2021/12/17 03:12:40;;;;;;;111.83;22.77;;;;;;;;;;5074046;28;20535;-72
2021/12/17 03:18:07;;;;;;;160.07;26.77;;;;;;;;;;5091420;28;20047;-72
2021/12/17 03:26:19;;;;;;;175.23;27.07;;;;;;;;;;4973632;28;20088;-71
2021/12/17 03:28:47;;;;;;;209.15;29.75;;;;;;;;;;4989668;28;20436;-71
2021/12/17 03:31:13;;;;;;;163.83;26.50;;;;;;;;;;5042735;28;20075;-71
2021/12/17 03:33:42;;;;;;;177.57;27.20;;;;;;;;;;5091595;28;20410;-72
2021/12/17 03:36:09;;;;;;;192.87;29.63;;;;;;;;;;5091134;28;20678;-72
2021/12/17 03:38:35;;;;;;;171.90;28.03;;;;;;;;;;5091347;28;20048;-72
2021/12/17 03:41:14;;;;;;;205.07;30.30;;;;;;;;;;5091439;28;20451;-71
2021/12/17 03:43:40;;;;;;;252.90;34.03;;;;;;;;;;5072790;28;20093;-72
2021/12/17 03:46:07;;;;;;;116.17;23.23;;;;;;;;;;5091332;28;20044;-71
2021/12/17 03:48:36;;;;;;;186.40;30.10;;;;;;;;;;5073451;28;20056;-72
2021/12/17 03:51:04;;;;;;;179.37;28.50;;;;;;;;;;5090857;28;20052;-72
2021/12/17 03:53:31;;;;;;;201.13;31.17;;;;;;;;;;5071993;28;20440;-71
2021/12/17 03:55:57;;;;;;;205.00;30.73;;;;;;;;;;5078057;28;20067;-71
2021/12/17 03:58:23;;;;;;;208.57;30.10;;;;;;;;;;5089883;28;20051;-72
2021/12/17 04:00:49;;;;;;;164.70;27.40;;;;;;;;;;5073226;28;20182;-72
2021/12/17 04:03:15;;;;;;;173.00;27.20;;;;;;;;;;5090907;28;20047;-72
2021/12/17 04:05:42;;;;;;;216.63;30.03;;;;;;;;;;5084931;28;20698;-72
2021/12/17 04:08:08;;;;;;;155.03;26.87;;;;;;;;;;5064398;28;20082;-72
2021/12/17 04:10:42;;;;;;;168.23;26.17;;;;;;;;;;5079813;28;20502;-72
2021/12/17 04:16:04;;;;;;;156.97;25.63;;;;;;;;;;5093105;28;20077;-72
2021/12/17 04:18:31;;;;;;;157.03;23.83;;;;;;;;;;5062371;28;20501;-72
2021/12/17 04:20:59;;;;;;;115.40;22.67;;;;;;;;;;5090661;28;20036;-72
2021/12/17 04:23:25;;;;;;;119.93;22.80;;;;;;;;;;5072387;28;20059;-72
2021/12/17 04:25:52;;;;;;;140.33;25.10;;;;;;;;;;5090203;28;20040;-71
2021/12/17 04:28:18;;;;;;;97.43;20.00;;;;;;;;;;5072656;28;20062;-71
2021/12/17 04:30:45;;;;;;;98.70;20.87;;;;;;;;;;5090163;28;20486;-72
2021/12/17 04:33:12;;;;;;;121.20;22.97;;;;;;;;;;5071952;28;20055;-72
2021/12/17 04:35:39;;;;;;;117.77;22.57;;;;;;;;;;5082553;28;20074;-72
2021/12/17 04:38:07;;;;;;;141.93;25.20;;;;;;;;;;5069930;28;20052;-71
2021/12/17 04:40:34;;;;;;;209.20;32.33;;;;;;;;;;5068272;28;20076;-72
2021/12/17 04:43:20;;;;;;;143.17;25.43;;;;;;;;;;5068428;28;20055;-71
2021/12/17 04:46:03;;;;;;;179.93;27.60;;;;;;;;;;5068641;28;20052;-71
2021/12/17 04:59:27;;;;;;;176.37;29.23;;;;;;;;;;5070731;28;20135;-72
2021/12/17 05:01:54;;;;;;;163.40;29.17;;;;;;;;;;5068577;28;20106;-72
2021/12/17 05:04:20;;;;;;;133.40;25.90;;;;;;;;;;5081666;28;20048;-72
2021/12/17 05:06:46;;;;;;;128.43;25.53;;;;;;;;;;5068141;28;20067;-71
2021/12/17 05:09:26;;;;;;;146.00;27.53;;;;;;;;;;5034721;28;20036;-72
2021/12/17 05:20:19;;;;;;;155.17;27.60;;;;;;;;;;5071287;28;20272;-71
2021/12/17 05:22:49;;;;;;;138.60;25.70;;;;;;;;;;5071218;28;20066;-71
2021/12/17 05:25:15;;;;;;;181.17;27.87;;;;;;;;;;5070850;28;20542;-71
2021/12/17 05:27:41;;;;;;;183.53;27.20;;;;;;;;;;5089064;28;20054;-71
2021/12/17 05:30:08;;;;;;;199.30;30.60;;;;;;;;;;5067275;28;20131;-71
2021/12/17 05:32:33;;;;;;;166.70;29.47;;;;;;;;;;5077581;28;20056;-71
2021/12/17 05:34:59;;;;;;;155.53;27.20;;;;;;;;;;5071389;28;20040;-71
2021/12/17 05:37:25;;;;;;;139.07;25.90;;;;;;;;;;5070416;28;20071;-71
2021/12/17 05:39:52;;;;;;;163.97;27.97;;;;;;;;;;5071382;28;20047;-71
2021/12/17 05:42:19;;;;;;;203.60;31.20;;;;;;;;;;5070856;28;20054;-71
2021/12/17 05:44:51;;;;;;;255.13;33.73;;;;;;;;;;5066723;28;20054;-71
2021/12/17 05:47:17;;;;;;;162.07;28.80;;;;;;;;;;5067610;28;20056;-71
2021/12/17 05:49:43;;;;;;;237.00;32.80;;;;;;;;;;5068584;28;20052;-71
2021/12/17 05:52:09;;;;;;;226.07;31.17;;;;;;;;;;5067490;28;20051;-71
2021/12/17 05:54:36;;;;;;;184.47;27.80;;;;;;;;;;5067487;28;20540;-71
2021/12/17 05:57:02;;;;;;;301.63;34.63;;;;;;;;;;5067869;28;20048;-70
2021/12/17 05:59:33;;;;;;;221.17;31.13;;;;;;;;;;5067302;28;20048;-70
2021/12/17 06:02:08;;;;;;;268.93;34.47;;;;;;;;;;5067376;28;20494;-70
2021/12/17 06:04:34;;;;;;;262.93;33.33;;;;;;;;;;5067508;28;20049;-70
2021/12/17 06:07:00;;;;;;;157.43;26.30;;;;;;;;;;5067608;28;20044;-70
2021/12/17 06:09:26;;;;;;;183.73;28.57;;;;;;;;;;5067178;28;20040;-70
2021/12/17 06:11:52;;;;;;;240.57;30.43;;;;;;;;;;5067344;28;20044;-70
2021/12/17 06:14:18;;;;;;;184.37;28.57;;;;;;;;;;5068599;28;20398;-70
2021/12/17 06:16:44;;;;;;;150.77;25.63;;;;;;;;;;5070769;28;20131;-70
2021/12/17 06:19:10;;;;;;;170.33;26.27;;;;;;;;;;5074199;28;20071;-70
2021/12/17 06:21:36;;;;;;;196.87;28.87;;;;;;;;;;5074715;28;20163;-70
2021/12/17 06:24:02;;;;;;;148.20;25.20;;;;;;;;;;5071003;28;20537;-70
2021/12/17 06:26:28;;;;;;;140.87;24.37;;;;;;;;;;5074570;28;20054;-70
2021/12/17 06:28:54;;;;;;;161.43;25.80;;;;;;;;;;5085367;28;20045;-70
2021/12/17 06:31:23;;;;;;;154.77;25.13;;;;;;;;;;5054229;28;20048;-70
2021/12/17 06:33:49;;;;;;;173.57;27.00;;;;;;;;;;5054455;28;20766;-70
2021/12/17 06:36:15;;;;;;;166.37;26.17;;;;;;;;;;5054510;28;20044;-70
2021/12/17 06:38:41;;;;;;;155.93;27.30;;;;;;;;;;5090864;28;20043;-70
2021/12/17 06:41:07;;;;;;;205.63;27.90;;;;;;;;;;5073708;28;20063;-70
2021/12/17 06:43:38;;;;;;;156.43;26.23;;;;;;;;;;5092262;28;20048;-70
2021/12/17 06:46:23;;;;;;;202.90;29.93;;;;;;;;;;5073065;28;20040;-70
2021/12/17 06:48:56;;;;;;;167.07;28.40;;;;;;;;;;5074308;28;20412;-71
2021/12/17 07:17:54;;;;;;;151.30;25.47;;;;;;;;;;5073341;28;20063;-70
2021/12/17 07:23:12;;;;;;;129.63;24.33;;;;;;;;;;5091687;28;20048;-70
2021/12/17 07:33:57;;;;;;;159.63;25.10;;;;;;;;;;5086309;28;20083;-70
2021/12/17 07:36:23;;;;;;;142.20;25.43;;;;;;;;;;5062194;28;20045;-71
2021/12/17 07:38:50;;;;;;;140.50;26.07;;;;;;;;;;5070729;28;20040;-71
2021/12/17 07:41:17;;;;;;;140.13;24.77;;;;;;;;;;5070992;28;20479;-70
2021/12/17 07:43:55;;;;;;;110.47;23.27;;;;;;;;;;5063417;28;20052;-71
2021/12/17 07:46:22;;;;;;;140.33;24.90;;;;;;;;;;5065356;28;20072;-71
2021/12/17 07:48:48;;;;;;;129.47;24.47;;;;;;;;;;5056775;28;20051;-71
2021/12/17 07:51:15;;;;;;;137.33;25.37;;;;;;;;;;5072202;28;20455;-71
2021/12/17 07:53:41;;;;;;;166.17;26.50;;;;;;;;;;5058958;28;20056;-71
2021/12/17 07:56:08;;;;;;;146.87;26.00;;;;;;;;;;5050260;28;20051;-71
2021/12/17 07:58:34;;;;;;;148.17;25.93;;;;;;;;;;5071016;28;20170;-71
2021/12/17 08:01:01;;;;;;;137.47;26.40;;;;;;;;;;5069693;28;20051;-71
2021/12/17 08:03:27;;;;;;;151.97;27.13;;;;;;;;;;5087180;28;20271;-70
2021/12/17 08:05:54;;;;;;;141.90;27.80;;;;;;;;;;5056216;28;20055;-70
2021/12/17 08:08:20;;;;;;;270.03;34.60;;;;;;;;;;5086456;28;20524;-70
2021/12/17 08:10:49;;;;;;;170.07;28.73;;;;;;;;;;5066174;28;20045;-70
2021/12/17 08:13:23;;;;;;;185.97;30.80;;;;;;;;;;5059917;28;20040;-70
2021/12/17 08:16:03;;;;;;;231.57;34.35;;;;;;;;;;5056305;28;20044;-70
2021/12/17 08:31:26;;;;;;;160.10;29.30;;;;;;;;;;5051063;28;20048;-70
2021/12/17 08:33:53;;;;;;;174.17;28.33;;;;;;;;;;5069061;28;20525;-70
2021/12/17 08:36:19;;;;;;;122.73;24.33;;;;;;;;;;5065557;28;20129;-70
2021/12/17 08:38:46;;;;;;;106.00;23.37;;;;;;;;;;5062688;28;20036;-71
2021/12/17 08:41:12;;;;;;;134.60;25.50;;;;;;;;;;5050551;28;20059;-71
2021/12/17 08:43:38;;;;;;;107.80;23.23;;;;;;;;;;5050636;28;20044;-71
2021/12/17 08:46:04;;;;;;;138.33;25.60;;;;;;;;;;5066656;28;20055;-71
2021/12/17 08:48:31;;;;;;;99.83;23.17;;;;;;;;;;5071326;28;20048;-71
2021/12/17 08:50:57;;;;;;;83.03;21.43;;;;;;;;;;5088111;28;20135;-71
2021/12/17 08:53:23;;;;;;;126.30;24.50;;;;;;;;;;5066508;28;20043;-71
2021/12/17 08:55:49;;;;;;;128.23;24.93;;;;;;;;;;5073676;28;20044;-71
2021/12/17 08:58:15;;;;;;;107.23;23.93;;;;;;;;;;5067846;28;20094;-71
2021/12/17 09:00:42;;;;;;;96.43;22.60;;;;;;;;;;5067483;28;20044;-71
2021/12/17 09:03:09;;;;;;;121.90;25.33;;;;;;;;;;5068025;28;20049;-71
2021/12/17 09:05:37;;;;;;;147.70;26.97;;;;;;;;;;5069088;28;20123;-71
2021/12/17 09:08:04;;;;;;;103.47;24.33;;;;;;;;;;5067912;28;20048;-71
2021/12/17 09:10:30;;;;;;;87.20;23.63;;;;;;;;;;5070263;28;20444;-71
2021/12/17 09:12:56;;;;;;;100.70;23.40;;;;;;;;;;5086560;28;20055;-71
2021/12/17 09:15:22;;;;;;;87.60;22.73;;;;;;;;;;5070859;28;20101;-71
2021/12/17 09:17:48;;;;;;;101.33;22.30;;;;;;;;;;5067476;28;20091;-71
2021/12/17 09:20:14;;;;;;;111.53;24.03;;;;;;;;;;5067312;28;20080;-71
2021/12/17 09:22:40;;;;;;;113.73;24.03;;;;;;;;;;5067736;28;20048;-70
2021/12/17 09:25:07;;;;;;;128.43;24.93;;;;;;;;;;5050256;28;20098;-71
2021/12/17 09:27:33;;;;;;;62.73;18.80;;;;;;;;;;5068843;28;20066;-71
2021/12/17 09:29:59;;;;;;;99.50;21.40;;;;;;;;;;5067064;28;20055;-71
2021/12/17 09:32:25;;;;;;;77.90;21.47;;;;;;;;;;5067296;28;20045;-71
2021/12/17 09:34:51;;;;;;;87.33;21.37;;;;;;;;;;5067769;28;20101;-71
2021/12/17 09:37:17;;;;;;;80.57;21.00;;;;;;;;;;5067346;28;20093;-71
2021/12/17 09:39:43;;;;;;;93.53;20.63;;;;;;;;;;5067550;28;20511;-71
2021/12/17 09:42:10;;;;;;;70.03;20.57;;;;;;;;;;5057031;28;20070;-71
2021/12/17 09:44:36;;;;;;;48.90;15.70;;;;;;;;;;5067287;28;20457;-71
2021/12/17 09:47:03;;;;;;;62.20;18.47;;;;;;;;;;5066872;28;20040;-71
2021/12/17 09:49:29;;;;;;;51.57;16.37;;;;;;;;;;5050711;28;20063;-71
2021/12/17 09:51:56;;;;;;;47.73;16.07;;;;;;;;;;5067008;28;20087;-71
2021/12/17 09:54:22;;;;;;;66.97;17.97;;;;;;;;;;5068092;28;20056;-71
2021/12/17 09:56:49;;;;;;;53.00;16.33;;;;;;;;;;5067316;28;20041;-71
2021/12/17 09:59:15;;;;;;;56.67;16.93;;;;;;;;;;5068298;28;20056;-71
2021/12/17 10:01:43;;;;;;;44.30;15.07;;;;;;;;;;5066926;28;20052;-71
2021/12/17 10:04:12;;;;;;;41.37;14.37;;;;;;;;;;5067233;28;20047;-71
2021/12/17 10:06:38;;;;;;;61.47;15.83;;;;;;;;;;5066669;28;20086;-71
2021/12/17 10:09:04;;;;;;;47.67;15.23;;;;;;;;;;5068485;28;20084;-71
2021/12/17 10:11:30;;;;;;;51.57;15.93;;;;;;;;;;5065456;28;20066;-70
2021/12/17 10:14:14;;;;;;;71.50;18.83;;;;;;;;;;5056107;28;20096;-71
2021/12/17 10:16:42;;;;;;;36.77;13.33;;;;;;;;;;5064668;28;20053;-70
2021/12/17 10:19:08;;;;;;;68.43;17.80;;;;;;;;;;5070206;28;20052;-71
2021/12/17 10:21:38;;;;;;;66.37;18.57;;;;;;;;;;5088585;28;20036;-71
2021/12/17 10:24:05;;;;;;;78.97;19.97;;;;;;;;;;5069941;28;20056;-71
2021/12/17 10:26:41;;;;;;;73.10;19.07;;;;;;;;;;5070227;28;20516;-71
2021/12/17 10:29:07;;;;;;;105.27;21.50;;;;;;;;;;5053132;28;20044;-71
2021/12/17 10:31:37;;;;;;;49.67;15.70;;;;;;;;;;5070250;28;20043;-71
2021/12/17 10:34:05;;;;;;;48.90;15.10;;;;;;;;;;5070032;28;20163;-71
2021/12/17 10:36:35;;;;;;;40.83;15.37;;;;;;;;;;5070406;28;20204;-71
2021/12/17 10:39:05;;;;;;;79.83;19.53;;;;;;;;;;5087956;28;20044;-71
2021/12/17 10:41:33;;;;;;;60.77;17.23;;;;;;;;;;5070359;28;20398;-71
2021/12/17 10:44:07;;;;;;;72.70;19.10;;;;;;;;;;5069980;28;20044;-71
2021/12/17 10:46:35;;;;;;;56.23;17.20;;;;;;;;;;5069390;28;20047;-71
2021/12/17 10:54:06;;;;;;;57.77;16.93;;;;;;;;;;5068879;28;20391;-71
2021/12/17 10:56:42;;;;;;;48.37;15.47;;;;;;;;;;5070168;28;20063;-71
2021/12/17 10:59:13;;;;;;;56.57;17.10;;;;;;;;;;5070037;28;20453;-71
2021/12/17 11:01:43;;;;;;;56.50;17.77;;;;;;;;;;5069387;28;20048;-71
2021/12/17 11:04:17;;;;;;;56.70;17.73;;;;;;;;;;5069777;28;20052;-71
2021/12/17 11:06:43;;;;;;;38.90;15.43;;;;;;;;;;5071058;28;20052;-71
2021/12/17 11:09:09;;;;;;;36.37;14.70;;;;;;;;;;5070488;28;20053;-71
2021/12/17 11:11:41;;;;;;;55.57;17.33;;;;;;;;;;5070040;28;20052;-71
2021/12/17 11:14:07;;;;;;;46.83;15.63;;;;;;;;;;5070320;28;20406;-71
2021/12/17 11:16:35;;;;;;;44.53;15.30;;;;;;;;;;5077117;28;20048;-71
2021/12/17 11:19:01;;;;;;;51.07;16.23;;;;;;;;;;5091291;28;20600;-71
2021/12/17 11:21:27;;;;;;;32.77;13.43;;;;;;;;;;5056643;28;20506;-71
2021/12/17 11:23:54;;;;;;;39.13;15.00;;;;;;;;;;5073379;28;20142;-71
2021/12/17 11:26:20;;;;;;;34.43;14.10;;;;;;;;;;5073004;28;20083;-71
2021/12/17 11:28:46;;;;;;;35.80;13.07;;;;;;;;;;5073036;28;20418;-71
2021/12/17 11:31:12;;;;;;;34.60;13.63;;;;;;;;;;5072181;28;20105;-71
2021/12/17 11:33:39;;;;;;;28.33;12.23;;;;;;;;;;5073140;28;20043;-71
2021/12/17 11:36:05;;;;;;;21.73;11.13;;;;;;;;;;5070804;28;20052;-71
2021/12/17 11:38:41;;;;;;;25.37;11.57;;;;;;;;;;5090579;28;20048;-71
2021/12/17 11:41:13;;;;;;;28.07;12.03;;;;;;;;;;5060908;28;20106;-71
2021/12/17 11:43:48;;;;;;;23.20;11.00;;;;;;;;;;5071624;28;20051;-71
2021/12/17 11:46:14;;;;;;;24.90;10.10;;;;;;;;;;5072660;28;20059;-71
2021/12/17 11:48:45;;;;;;;36.87;13.43;;;;;;;;;;5090801;28;20121;-72
2021/12/17 11:51:13;;;;;;;29.23;11.37;;;;;;;;;;5091193;28;20723;-72
2021/12/17 11:53:42;;;;;;;24.57;11.53;;;;;;;;;;5090613;28;20040;-72
2021/12/17 11:56:08;;;;;;;27.27;11.77;;;;;;;;;;5073004;28;20080;-71
2021/12/17 11:58:44;;;;;;;22.93;11.43;;;;;;;;;;5085605;28;20052;-72
2021/12/17 12:01:10;;;;;;;21.30;10.23;;;;;;;;;;5066632;28;20131;-71
2021/12/17 12:03:36;;;;;;;35.73;11.97;;;;;;;;;;5055072;28;20075;-71
2021/12/17 12:06:02;;;;;;;28.50;11.57;;;;;;;;;;5053983;28;20075;-71
2021/12/17 12:08:37;;;;;;;46.03;15.30;;;;;;;;;;5070255;28;20059;-71
2021/12/17 12:11:11;;;;;;;39.83;13.27;;;;;;;;;;5067434;28;20044;-71
2021/12/17 12:13:37;;;;;;;;;;;;;;;;;;5072775;28;20053;-71
2021/12/17 12:16:04;;;;;;;31.53;11.33;;;;;;;;;;5071536;28;19942;-71
2021/12/17 12:18:42;;;;;;;35.63;12.73;;;;;;;;;;5055689;28;20387;-71
2021/12/17 12:21:09;;;;;;;39.47;14.40;;;;;;;;;;5059654;28;20052;-71
2021/12/17 12:23:37;;;;;;;25.90;11.73;;;;;;;;;;5082613;28;20044;-71
2021/12/17 12:26:11;;;;;;;29.17;11.53;;;;;;;;;;5061237;28;20056;-71
2021/12/17 12:28:49;;;;;;;40.57;13.77;;;;;;;;;;5052423;28;20744;-71
2021/12/17 12:31:18;;;;;;;22.57;9.73;;;;;;;;;;5070805;28;20085;-71
2021/12/17 12:34:03;;;;;;;53.87;14.70;;;;;;;;;;5063870;28;20040;-72
2021/12/17 12:36:45;;;;;;;28.23;10.67;;;;;;;;;;5080270;28;20569;-71
2021/12/17 12:39:17;;;;;;;51.13;13.87;;;;;;;;;;5084294;28;20048;-71
2021/12/17 12:41:46;;;;;;;34.20;11.47;;;;;;;;;;5086496;28;20048;-71
2021/12/17 12:44:13;;;;;;;48.53;13.00;;;;;;;;;;5079202;28;20048;-71
2021/12/17 12:46:49;;;;;;;36.70;12.77;;;;;;;;;;5054402;28;20131;-71
2021/12/17 12:49:33;;;;;;;50.67;14.87;;;;;;;;;;5059005;28;20080;-71
2021/12/17 12:52:18;;;;;;;53.23;14.83;;;;;;;;;;5081142;28;20051;-71
2021/12/17 12:54:48;;;;;;;36.57;12.30;;;;;;;;;;5052595;28;20055;-70
2021/12/17 12:57:23;;;;;;;81.50;17.17;;;;;;;;;;5071464;28;20051;-71
2021/12/17 12:59:51;;;;;;;70.90;17.50;;;;;;;;;;5083450;28;20046;-71
2021/12/17 13:02:17;;;;;;;46.73;14.20;;;;;;;;;;5051837;28;20135;-71
2021/12/17 13:04:43;;;;;;;57.50;15.60;;;;;;;;;;5078429;28;20040;-70
2021/12/17 13:07:09;;;;;;;44.97;13.87;;;;;;;;;;5069329;28;20463;-70
2021/12/17 13:09:41;;;;;;;72.77;17.60;;;;;;;;;;5062288;28;20043;-71
2021/12/17 13:12:08;;;;;;;55.43;16.13;;;;;;;;;;5070043;28;20052;-71
2021/12/17 13:14:34;;;;;;;42.83;13.23;;;;;;;;;;5088226;28;20509;-70
2021/12/17 13:17:28;;;;;;;79.73;18.50;;;;;;;;;;5057970;28;20854;-71
2021/12/17 13:20:30;;;;;;;52.13;14.77;;;;;;;;;;5087364;28;20051;-70
2021/12/17 13:22:57;;;;;;;43.37;13.67;;;;;;;;;;5071637;28;20108;-71
2021/12/17 13:25:27;;;;;;;50.13;14.93;;;;;;;;;;5086737;28;20047;-70
2021/12/17 13:27:54;;;;;;;59.10;16.03;;;;;;;;;;5060507;28;20052;-70
2021/12/17 13:30:27;;;;;;;60.40;16.23;;;;;;;;;;5059311;28;20437;-70
2021/12/17 13:32:54;;;;;;;51.75;14.45;;;;;;;;;;5087612;28;20048;-71
2021/12/17 13:35:22;;;;;;;70.03;17.40;;;;;;;;;;5082151;28;20047;-71
2021/12/17 13:37:52;;;;;;;47.77;14.80;;;;;;;;;;5069319;28;20406;-70
2021/12/17 13:40:23;;;;;;;75.40;16.93;;;;;;;;;;5050920;28;20119;-71
2021/12/17 13:42:49;;;;;;;75.67;18.13;;;;;;;;;;5068923;28;20040;-70
2021/12/17 13:45:17;;;;;;;60.60;17.50;;;;;;;;;;5067708;28;20044;-71
2021/12/17 13:47:47;;;;;;;73.73;18.57;;;;;;;;;;5083838;28;20044;-71
2021/12/17 13:50:24;;;;;;;70.60;18.13;;;;;;;;;;5070145;28;20051;-71
2021/12/17 13:53:01;;;;;;;62.80;17.10;;;;;;;;;;5062204;28;20040;-70
2021/12/17 13:55:32;;;;;;;63.50;17.70;;;;;;;;;;5088316;28;20406;-70
2021/12/17 13:57:59;;;;;;;70.90;17.97;;;;;;;;;;5070355;28;20071;-71
2021/12/17 14:00:46;;;;;;;63.30;17.37;;;;;;;;;;5088423;28;20040;-71
2021/12/17 14:03:19;;;;;;;78.17;19.27;;;;;;;;;;5053893;28;20048;-71
2021/12/17 14:06:36;;;;;;;61.00;16.02;;;;;;;;;;5069873;28;20052;-71
2021/12/17 14:08:38;;;;;;;69.73;16.73;;;;;;;;;;5072754;28;20054;-71
2021/12/17 14:11:04;;;;;;;70.50;16.43;;;;;;;;;;5050080;28;20491;-71
2021/12/17 14:13:30;;;;;;;83.67;18.63;;;;;;;;;;5068385;28;20054;-71
2021/12/17 14:15:57;;;;;;;57.57;17.33;;;;;;;;;;5049730;28;20040;-71
2021/12/17 14:18:25;;;;;;;59.30;16.73;;;;;;;;;;5050128;28;20114;-71
2021/12/17 14:20:52;;;;;;;79.63;18.37;;;;;;;;;;5049813;28;20057;-71
2021/12/17 14:23:25;;;;;;;80.30;19.80;;;;;;;;;;5068058;28;20045;-70
2021/12/17 14:25:53;;;;;;;78.93;19.60;;;;;;;;;;5046207;28;20114;-70
2021/12/17 14:28:25;;;;;;;45.17;15.27;;;;;;;;;;5082354;28;20074;-70
2021/12/17 14:31:04;;;;;;;60.03;16.33;;;;;;;;;;5035013;28;20055;-70
2021/12/17 14:33:34;;;;;;;67.80;17.57;;;;;;;;;;5046937;28;20453;-70
2021/12/17 14:36:01;;;;;;;79.63;19.30;;;;;;;;;;5049831;28;20045;-70
2021/12/17 14:38:43;;;;;;;58.90;16.30;;;;;;;;;;5068010;28;20048;-71
2021/12/17 14:41:13;;;;;;;64.50;17.47;;;;;;;;;;5041631;28;20404;-70
2021/12/17 14:43:42;;;;;;;63.23;17.43;;;;;;;;;;5055043;28;20036;-71
2021/12/17 14:48:48;;;;;;;42.40;13.60;;;;;;;;;;5033418;28;20136;-71
2021/12/17 15:02:26;;;;;;;51.43;14.53;;;;;;;;;;5051535;28;20041;-71
2021/12/17 15:04:49;;;;;;;66.43;16.47;;;;;;;;;;5059940;28;20102;-71
2021/12/17 15:07:15;;;;;;;70.07;16.73;;;;;;;;;;5050468;28;20040;-71
2021/12/17 15:09:46;;;;;;;55.97;16.23;;;;;;;;;;5059271;28;20458;-71
2021/12/17 15:14:56;;;;;;;73.97;18.20;;;;;;;;;;5052026;28;20056;-71
2021/12/17 15:17:22;;;;;;;47.70;15.87;;;;;;;;;;5064464;28;20060;-71
2021/12/17 15:19:48;;;;;;;39.93;13.27;;;;;;;;;;5055795;28;20632;-71
2021/12/17 15:22:14;;;;;;;36.70;13.03;;;;;;;;;;5062210;28;20135;-71
2021/12/17 15:24:41;;;;;;;34.77;12.73;;;;;;;;;;5067038;28;20082;-71
2021/12/17 15:27:07;;;;;;;29.53;10.87;;;;;;;;;;5053038;28;20468;-70
2021/12/17 15:29:33;;;;;;;25.70;9.70;;;;;;;;;;5052900;28;20383;-70
2021/12/17 15:31:59;;;;;;;28.63;9.93;;;;;;;;;;5050650;28;20052;-70
2021/12/17 15:34:26;;;;;;;28.23;9.47;;;;;;;;;;5052755;28;20041;-70
2021/12/17 15:36:53;;;;;;;24.03;9.30;;;;;;;;;;5052802;28;20457;-70
2021/12/17 15:39:19;;;;;;;21.83;8.70;;;;;;;;;;5052278;28;20053;-70
2021/12/17 15:41:45;;;;;;;20.00;8.57;;;;;;;;;;5070086;28;20135;-70
2021/12/17 15:44:11;;;;;;;33.33;11.10;;;;;;;;;;5070714;28;20044;-70
2021/12/17 15:46:38;;;;;;;30.47;10.27;;;;;;;;;;5052796;28;20617;-70
2021/12/17 15:49:05;;;;;;;23.67;8.30;;;;;;;;;;5052040;28;20047;-70
2021/12/17 15:51:31;;;;;;;33.10;11.80;;;;;;;;;;5068837;28;20052;-70
2021/12/17 15:53:58;;;;;;;45.97;12.50;;;;;;;;;;5052418;28;20040;-70
2021/12/17 15:56:24;;;;;;;30.60;10.77;;;;;;;;;;5070080;28;20041;-70
2021/12/17 15:58:50;;;;;;;36.63;11.83;;;;;;;;;;5070146;28;20044;-70
2021/12/17 16:01:16;;;;;;;43.80;13.10;;;;;;;;;;5071248;28;20043;-71
2021/12/17 16:03:43;;;;;;;28.73;11.67;;;;;;;;;;5069954;28;20094;-70
2021/12/17 16:06:10;;;;;;;51.90;14.40;;;;;;;;;;5070827;28;20410;-71
2021/12/17 16:08:42;;;;;;;33.53;11.30;;;;;;;;;;5049619;28;20553;-71
2021/12/17 16:21:38;;;;;;;22.00;9.80;;;;;;;;;;5070383;28;20164;-70
2021/12/17 16:24:04;;;;;;;28.53;10.80;;;;;;;;;;5068546;28;20048;-70
2021/12/17 16:26:30;;;;;;;23.03;9.67;;;;;;;;;;5052451;28;20093;-70
2021/12/17 16:28:57;;;;;;;21.70;9.43;;;;;;;;;;5068807;28;20076;-70
2021/12/17 16:31:24;;;;;;;31.57;10.73;;;;;;;;;;5069685;28;20044;-70
2021/12/17 16:33:51;;;;;;;22.60;9.43;;;;;;;;;;5068671;28;20041;-70
2021/12/17 16:36:18;;;;;;;29.33;10.40;;;;;;;;;;5068653;28;20051;-70
2021/12/17 16:38:44;;;;;;;27.93;11.37;;;;;;;;;;5068483;28;20044;-70
2021/12/17 16:41:10;;;;;;;27.83;10.63;;;;;;;;;;5068827;28;20052;-70
2021/12/17 16:43:37;;;;;;;35.73;11.93;;;;;;;;;;5068653;28;20038;-71
2021/12/17 16:48:37;;;;;;;34.00;11.33;;;;;;;;;;5068340;28;20048;-70
2021/12/17 16:51:04;;;;;;;27.63;11.07;;;;;;;;;;5068642;28;20087;-70
2021/12/17 16:53:30;;;;;;;30.27;10.30;;;;;;;;;;5070075;28;20040;-70
2021/12/17 16:55:56;;;;;;;32.93;10.60;;;;;;;;;;5069478;28;20084;-71
2021/12/17 16:58:22;;;;;;;43.90;11.70;;;;;;;;;;5069198;28;20499;-70
2021/12/17 17:00:49;;;;;;;31.10;11.23;;;;;;;;;;5051239;28;20055;-70
2021/12/17 17:03:15;;;;;;;32.90;11.73;;;;;;;;;;5069552;28;20071;-70
2021/12/17 17:05:42;;;;;;;37.57;12.07;;;;;;;;;;5068493;28;20139;-70
2021/12/17 17:08:09;;;;;;;34.07;10.90;;;;;;;;;;5067251;28;20050;-70
2021/12/17 17:10:35;;;;;;;28.20;11.27;;;;;;;;;;5049249;28;20132;-70
2021/12/17 17:13:04;;;;;;;23.43;9.67;;;;;;;;;;5047977;28;20056;-70
2021/12/17 17:15:34;;;;;;;34.37;10.73;;;;;;;;;;5049521;28;20498;-70
2021/12/17 17:18:00;;;;;;;41.10;12.40;;;;;;;;;;5061464;28;20056;-70
2021/12/17 17:20:27;;;;;;;37.20;12.37;;;;;;;;;;5067526;28;20098;-70
2021/12/17 17:22:53;;;;;;;27.53;10.43;;;;;;;;;;5069294;28;20079;-70
2021/12/17 17:25:19;;;;;;;29.47;11.33;;;;;;;;;;5067779;28;20806;-70
2021/12/17 17:27:45;;;;;;;33.20;12.03;;;;;;;;;;5067868;28;20048;-70
2021/12/17 17:30:11;;;;;;;32.63;11.17;;;;;;;;;;5067382;28;20127;-70
2021/12/17 17:32:37;;;;;;;40.10;11.80;;;;;;;;;;5068930;28;20423;-70
2021/12/17 17:35:03;;;;;;;29.40;11.33;;;;;;;;;;5069068;28;20102;-70
2021/12/17 17:37:31;;;;;;;35.73;11.73;;;;;;;;;;5068970;28;20814;-70
2021/12/17 17:39:58;;;;;;;33.27;10.50;;;;;;;;;;5070596;28;20056;-70
2021/12/17 17:42:24;;;;;;;38.00;11.43;;;;;;;;;;5089078;28;20048;-70
2021/12/17 17:44:50;;;;;;;26.57;10.67;;;;;;;;;;5070730;28;20052;-70